createdAt,value
2019-03-31T00:00:08.035Z,100484.67
2019-03-31T00:02:37.367Z,100483.07
2019-03-31T00:05:06.657Z,100479.11
2019-03-31T00:07:35.933Z,100478.28
2019-03-31T00:10:08.170Z,100481.39
2019-03-31T00:12:37.381Z,100482.60
2019-03-31T00:15:08.512Z,100477.50
2019-03-31T00:17:37.765Z,100483.83
2019-03-31T00:20:08.054Z,100487.68
2019-03-31T00:22:37.320Z,100484.32
2019-03-31T00:25:06.908Z,100480.83
2019-03-31T00:27:36.315Z,100478.25
2019-03-31T00:30:06.499Z,100478.41
2019-03-31T00:32:35.717Z,100476.95
2019-03-31T00:35:04.970Z,100472.61
2019-03-31T00:37:34.144Z,100469.78
2019-03-31T00:40:04.355Z,100471.16
2019-03-31T00:42:33.767Z,100472.69
2019-03-31T00:45:03.103Z,100469.58
2019-03-31T00:47:32.335Z,100479.94
2019-03-31T00:50:01.539Z,100474.25
2019-03-31T00:52:30.766Z,100475.92
2019-03-31T00:54:59.914Z,100470.28
2019-03-31T00:57:29.206Z,100460.69
2019-03-31T00:59:58.618Z,100450.50
2019-03-31T01:02:30.418Z,100459.55
2019-03-31T01:05:00.010Z,100461.77
2019-03-31T01:07:29.785Z,100454.78
2019-03-31T01:09:59.681Z,100449.61
2019-03-31T01:12:29.618Z,100450.44
2019-03-31T01:14:59.053Z,100449.07
2019-03-31T01:17:28.678Z,100442.45
2019-03-31T01:19:59.763Z,100443.28
2019-03-31T01:22:29.338Z,100441.08
2019-03-31T01:24:58.578Z,100438.50
2019-03-31T01:27:28.474Z,100444.42
2019-03-31T01:29:57.666Z,100442.14
2019-03-31T01:32:26.938Z,100441.09
2019-03-31T01:34:56.162Z,100433.80
2019-03-31T01:37:25.679Z,100434.31
2019-03-31T01:39:55.184Z,100428.70
2019-03-31T01:42:24.557Z,100426.95
2019-03-31T01:44:53.829Z,100431.48
2019-03-31T01:47:23.105Z,100429.20
2019-03-31T01:49:52.632Z,100422.81
2019-03-31T01:52:21.867Z,100426.77
2019-03-31T01:54:51.116Z,100432.48
2019-03-31T01:57:20.321Z,100434.81
2019-03-31T01:59:49.701Z,100426.39
2019-03-31T02:02:21.055Z,100429.36
2019-03-31T02:04:50.308Z,100422.98
2019-03-31T02:07:19.570Z,100424.92
2019-03-31T02:09:48.729Z,100427.91
2019-03-31T02:12:18.071Z,100427.75
2019-03-31T02:14:47.351Z,100423.13
2019-03-31T02:17:16.862Z,100428.30
2019-03-31T02:19:46.015Z,100420.98
2019-03-31T02:22:15.918Z,100418.03
2019-03-31T02:24:45.067Z,100411.72
2019-03-31T02:27:14.289Z,100411.33
2019-03-31T02:29:43.474Z,100420.77
2019-03-31T02:32:23.435Z,100424.32
2019-03-31T02:34:43.531Z,100415.81
2019-03-31T02:37:12.789Z,100415.58
2019-03-31T02:39:41.942Z,100415.18
2019-03-31T02:42:11.230Z,100413.53
2019-03-31T02:44:40.555Z,100412.31
2019-03-31T02:47:09.820Z,100414.72
2019-03-31T02:49:39.143Z,100415.04
2019-03-31T02:52:08.427Z,100414.04
2019-03-31T02:54:37.627Z,100416.45
2019-03-31T02:57:07.828Z,100415.73
2019-03-31T02:59:37.785Z,100419.64
2019-03-31T03:02:08.773Z,100417.73
2019-03-31T03:04:39.176Z,100415.16
2019-03-31T03:07:10.295Z,100416.91
2019-03-31T03:09:42.101Z,100411.09
2019-03-31T03:12:11.825Z,100417.12
2019-03-31T03:14:41.170Z,100406.61
2019-03-31T03:17:10.629Z,100417.83
2019-03-31T03:19:39.821Z,100417.14
2019-03-31T03:22:08.988Z,100412.80
2019-03-31T03:24:38.088Z,100412.80
2019-03-31T03:27:07.239Z,100406.68
2019-03-31T03:29:36.421Z,100411.63
2019-03-31T03:32:05.819Z,100407.44
2019-03-31T03:34:35.244Z,100407.37
2019-03-31T03:37:04.488Z,100410.41
2019-03-31T03:39:33.642Z,100404.21
2019-03-31T03:42:02.889Z,100404.21
2019-03-31T03:44:32.388Z,100400.37
2019-03-31T03:47:01.547Z,100402.13
2019-03-31T03:49:30.762Z,100402.13
2019-03-31T03:52:00.107Z,100400.90
2019-03-31T03:54:29.495Z,100406.36
2019-03-31T03:56:58.655Z,100404.95
2019-03-31T03:59:27.899Z,100404.95
2019-03-31T04:01:57.036Z,100403.41
2019-03-31T04:04:26.188Z,100416.65
2019-03-31T04:06:55.446Z,100411.77
2019-03-31T04:09:24.666Z,100407.51
2019-03-31T04:11:53.829Z,100407.51
2019-03-31T04:14:23.075Z,100400.86
2019-03-31T04:16:52.287Z,100404.73
2019-03-31T04:19:21.515Z,100408.09
2019-03-31T04:21:50.762Z,100412.46
2019-03-31T04:24:20.071Z,100405.95
2019-03-31T04:26:49.370Z,100405.05
2019-03-31T04:29:18.549Z,100403.16
2019-03-31T04:31:47.782Z,100402.73
2019-03-31T04:34:16.998Z,100405.33
2019-03-31T04:36:46.398Z,100405.33
2019-03-31T04:39:15.590Z,100401.33
2019-03-31T04:41:44.732Z,100404.77
2019-03-31T04:44:14.056Z,100398.05
2019-03-31T04:46:43.342Z,100396.43
2019-03-31T04:49:12.508Z,100396.43
2019-03-31T04:51:41.757Z,100405.52
2019-03-31T04:54:10.853Z,100410.20
2019-03-31T04:56:39.913Z,100410.20
2019-03-31T04:59:09.158Z,100401.66
2019-03-31T05:01:38.313Z,100401.66
2019-03-31T05:04:07.455Z,100406.86
2019-03-31T05:06:36.724Z,100404.83
2019-03-31T05:09:06.532Z,100411.03
2019-03-31T05:11:35.756Z,100407.02
2019-03-31T05:14:05.181Z,100409.09
2019-03-31T05:16:34.463Z,100410.66
2019-03-31T05:19:03.859Z,100405.04
2019-03-31T05:21:33.078Z,100408.31
2019-03-31T05:24:02.233Z,100413.27
2019-03-31T05:26:31.301Z,100407.92
2019-03-31T05:29:02.701Z,100411.27
2019-03-31T05:31:31.837Z,100412.42
2019-03-31T05:34:00.983Z,100414.68
2019-03-31T05:36:30.225Z,100408.72
2019-03-31T05:38:59.349Z,100413.38
2019-03-31T05:41:28.814Z,100407.12
2019-03-31T05:44:05.612Z,100409.25
2019-03-31T05:46:28.930Z,100405.53
2019-03-31T05:48:58.012Z,100402.89
2019-03-31T05:51:27.188Z,100398.86
2019-03-31T05:53:56.351Z,100395.93
2019-03-31T05:56:25.561Z,100397.80
2019-03-31T05:58:54.840Z,100399.62
2019-03-31T06:01:24.367Z,100398.13
2019-03-31T06:03:53.526Z,100406.19
2019-03-31T06:06:22.719Z,100401.40
2019-03-31T06:08:51.989Z,100400.90
2019-03-31T06:11:21.118Z,100404.25
2019-03-31T06:13:50.332Z,100400.20
2019-03-31T06:16:19.539Z,100398.28
2019-03-31T06:18:48.612Z,100396.34
2019-03-31T06:21:17.904Z,100398.19
2019-03-31T06:23:46.975Z,100398.33
2019-03-31T06:26:16.201Z,100399.27
2019-03-31T06:28:45.406Z,100402.11
2019-03-31T06:31:14.534Z,100397.23
2019-03-31T06:33:43.788Z,100399.08
2019-03-31T06:36:13.090Z,100398.45
2019-03-31T06:38:42.194Z,100402.23
2019-03-31T06:41:11.245Z,100399.87
2019-03-31T06:43:40.505Z,100398.16
2019-03-31T06:46:09.665Z,100391.12
2019-03-31T06:48:38.804Z,100386.12
2019-03-31T06:51:08.061Z,100389.67
2019-03-31T06:53:37.290Z,100387.31
2019-03-31T06:56:06.440Z,100387.06
2019-03-31T06:58:35.712Z,100389.30
2019-03-31T07:01:04.952Z,100382.73
2019-03-31T07:03:34.315Z,100384.09
2019-03-31T07:06:03.709Z,100388.50
2019-03-31T07:08:32.862Z,100389.16
2019-03-31T07:11:02.080Z,100385.59
2019-03-31T07:13:31.334Z,100386.48
2019-03-31T07:16:00.550Z,100379.15
2019-03-31T07:18:29.844Z,100380.02
2019-03-31T07:20:59.101Z,100378.09
2019-03-31T07:23:28.261Z,100386.98
2019-03-31T07:25:57.499Z,100381.53
2019-03-31T07:28:26.724Z,100382.89
2019-03-31T07:30:59.256Z,100378.08
2019-03-31T07:33:27.132Z,100376.05
2019-03-31T07:35:56.323Z,100370.83
2019-03-31T07:38:38.403Z,100371.42
2019-03-31T07:40:56.780Z,100366.46
2019-03-31T07:43:26.237Z,100369.28
2019-03-31T07:45:56.024Z,100365.10
2019-03-31T07:48:25.529Z,100365.25
2019-03-31T07:50:54.793Z,100365.08
2019-03-31T07:53:24.009Z,100358.80
2019-03-31T07:55:53.313Z,100362.99
2019-03-31T07:58:22.592Z,100367.75
2019-03-31T08:00:51.830Z,100356.59
2019-03-31T08:03:21.189Z,100356.40
2019-03-31T08:05:50.451Z,100347.27
2019-03-31T08:08:19.756Z,100351.02
2019-03-31T08:10:49.016Z,100348.98
2019-03-31T08:13:18.190Z,100348.04
2019-03-31T08:15:47.525Z,100350.02
2019-03-31T08:18:16.743Z,100350.32
2019-03-31T08:20:45.947Z,100348.08
2019-03-31T08:23:15.372Z,100345.50
2019-03-31T08:25:44.643Z,100347.17
2019-03-31T08:28:13.900Z,100347.84
2019-03-31T08:30:43.070Z,100341.69
2019-03-31T08:33:12.221Z,100342.95
2019-03-31T08:35:47.496Z,100345.94
2019-03-31T08:38:12.508Z,100333.34
2019-03-31T08:40:41.736Z,100329.89
2019-03-31T08:43:10.930Z,100326.36
2019-03-31T08:45:40.081Z,100318.04
2019-03-31T08:48:09.277Z,100318.68
2019-03-31T08:50:38.528Z,100320.17
2019-03-31T08:53:07.709Z,100315.90
2019-03-31T08:55:36.911Z,100318.77
2019-03-31T08:58:06.171Z,100303.67
2019-03-31T09:00:37.029Z,100305.42
2019-03-31T09:03:06.242Z,100303.16
2019-03-31T09:05:35.544Z,100301.59
2019-03-31T09:08:04.771Z,100302.54
2019-03-31T09:10:34.004Z,100293.20
2019-03-31T09:13:03.264Z,100299.36
2019-03-31T09:15:32.480Z,100300.53
2019-03-31T09:18:01.740Z,100299.01
2019-03-31T09:20:31.011Z,100298.48
2019-03-31T09:23:00.235Z,100299.83
2019-03-31T09:25:29.391Z,100300.09
2019-03-31T09:27:58.631Z,100298.19
2019-03-31T09:30:27.873Z,100293.14
2019-03-31T09:32:57.059Z,100296.16
2019-03-31T09:35:26.255Z,100288.91
2019-03-31T09:37:55.437Z,100295.95
2019-03-31T09:40:24.641Z,100296.25
2019-03-31T09:42:53.963Z,100285.12
2019-03-31T09:45:23.200Z,100276.69
2019-03-31T09:47:52.483Z,100283.75
2019-03-31T09:50:22.238Z,100278.18
2019-03-31T09:52:51.454Z,100269.93
2019-03-31T09:55:23.088Z,100278.13
2019-03-31T09:57:51.711Z,100270.02
2019-03-31T10:00:45.877Z,100270.73
2019-03-31T10:03:15.309Z,100263.35
2019-03-31T10:05:47.736Z,100263.17
2019-03-31T10:08:15.664Z,100258.77
2019-03-31T10:10:44.917Z,100255.73
2019-03-31T10:13:14.274Z,100260.03
2019-03-31T10:15:43.441Z,100255.48
2019-03-31T10:18:12.706Z,100252.97
2019-03-31T10:20:41.928Z,100250.72
2019-03-31T10:23:11.068Z,100253.39
2019-03-31T10:25:40.341Z,100254.27
2019-03-31T10:28:09.598Z,100254.80
2019-03-31T10:30:40.532Z,100248.06
2019-03-31T10:33:09.794Z,100251.59
2019-03-31T10:35:39.041Z,100245.09
2019-03-31T10:38:08.376Z,100241.75
2019-03-31T10:40:37.644Z,100239.09
2019-03-31T10:43:06.867Z,100236.18
2019-03-31T10:45:36.089Z,100231.98
2019-03-31T10:48:19.221Z,100229.26
2019-03-31T10:50:36.480Z,100226.78
2019-03-31T10:53:05.699Z,100219.41
2019-03-31T10:55:34.961Z,100217.16
2019-03-31T10:58:04.493Z,100217.38
2019-03-31T11:00:38.055Z,100214.63
2019-03-31T11:03:09.328Z,100205.38
2019-03-31T11:05:38.656Z,100202.00
2019-03-31T11:08:07.870Z,100190.16
2019-03-31T11:10:37.268Z,100193.72
2019-03-31T11:13:06.696Z,100186.45
2019-03-31T11:15:35.925Z,100182.88
2019-03-31T11:18:05.972Z,100180.52
2019-03-31T11:20:35.195Z,100181.84
2019-03-31T11:23:08.889Z,100171.21
2019-03-31T11:25:38.186Z,100176.37
2019-03-31T11:28:07.357Z,100173.16
2019-03-31T11:30:36.572Z,100168.53
2019-03-31T11:33:07.651Z,100174.44
2019-03-31T11:35:36.763Z,100171.20
2019-03-31T11:38:06.060Z,100165.83
2019-03-31T11:40:35.402Z,100155.97
2019-03-31T11:43:04.665Z,100161.84
2019-03-31T11:45:34.044Z,100162.84
2019-03-31T11:48:03.375Z,100155.54
2019-03-31T11:50:32.599Z,100154.73
2019-03-31T11:53:01.771Z,100148.64
2019-03-31T11:55:31.027Z,100140.31
2019-03-31T11:58:00.287Z,100137.74
2019-03-31T12:00:31.159Z,100139.25
2019-03-31T12:03:00.279Z,100134.04
2019-03-31T12:05:29.571Z,100124.63
2019-03-31T12:07:58.799Z,100127.44
2019-03-31T12:10:28.056Z,100122.66
2019-03-31T12:12:57.281Z,100121.11
2019-03-31T12:15:26.435Z,100118.50
2019-03-31T12:17:55.786Z,100107.48
2019-03-31T12:20:25.001Z,100109.62
2019-03-31T12:22:54.163Z,100104.08
2019-03-31T12:25:25.051Z,100096.66
2019-03-31T12:27:54.130Z,100099.56
2019-03-31T12:30:29.903Z,100093.68
2019-03-31T12:32:59.412Z,100094.77
2019-03-31T12:35:28.632Z,100092.34
2019-03-31T12:37:57.881Z,100080.95
2019-03-31T12:40:34.714Z,100078.07
2019-03-31T12:43:04.633Z,100076.25
2019-03-31T12:45:33.912Z,100069.94
2019-03-31T12:48:03.291Z,100068.65
2019-03-31T12:50:32.494Z,100063.52
2019-03-31T12:53:01.719Z,100060.89
2019-03-31T12:55:30.880Z,100053.94
2019-03-31T12:58:00.128Z,100050.25
2019-03-31T13:00:29.342Z,100050.05
2019-03-31T13:02:58.588Z,100043.41
2019-03-31T13:05:27.799Z,100038.08
2019-03-31T13:07:57.160Z,100027.22
2019-03-31T13:10:26.554Z,100028.09
2019-03-31T13:12:55.750Z,100023.37
2019-03-31T13:15:25.088Z,100022.03
2019-03-31T13:17:54.321Z,100016.26
2019-03-31T13:20:23.536Z,100011.20
2019-03-31T13:22:52.759Z,100015.83
2019-03-31T13:25:22.014Z,100007.88
2019-03-31T13:27:51.167Z,100009.05
2019-03-31T13:30:22.099Z,100005.61
2019-03-31T13:32:51.468Z,99999.74
2019-03-31T13:35:20.845Z,100003.37
2019-03-31T13:37:50.045Z,99993.59
2019-03-31T13:40:19.216Z,99992.26
2019-03-31T13:42:48.345Z,99989.57
2019-03-31T13:45:17.547Z,99987.26
2019-03-31T13:47:46.707Z,99984.52
2019-03-31T13:50:16.326Z,99980.78
2019-03-31T13:52:45.547Z,99981.34
2019-03-31T13:55:14.870Z,99984.93
2019-03-31T13:57:46.950Z,99979.13
2019-03-31T14:00:25.383Z,99967.94
2019-03-31T14:02:49.971Z,99973.69
2019-03-31T14:05:19.168Z,99967.33
2019-03-31T14:07:48.423Z,99966.50
2019-03-31T14:10:17.642Z,99969.27
2019-03-31T14:12:46.931Z,99959.79
2019-03-31T14:15:19.442Z,99966.86
2019-03-31T14:17:47.331Z,99964.47
2019-03-31T14:20:17.074Z,99957.41
2019-03-31T14:22:46.206Z,99954.47
2019-03-31T14:25:15.524Z,99945.70
2019-03-31T14:27:44.863Z,99943.98
2019-03-31T14:30:14.371Z,99945.86
2019-03-31T14:32:43.590Z,99939.60
2019-03-31T14:35:13.115Z,99938.87
2019-03-31T14:37:42.831Z,99940.81
2019-03-31T14:40:12.057Z,99937.62
2019-03-31T14:42:41.363Z,99936.52
2019-03-31T14:45:13.561Z,99933.88
2019-03-31T14:47:42.897Z,99933.06
2019-03-31T14:50:15.223Z,99931.42
2019-03-31T14:52:44.484Z,99928.19
2019-03-31T14:55:13.711Z,99925.83
2019-03-31T14:57:42.837Z,99924.73
2019-03-31T15:00:14.897Z,99922.44
2019-03-31T15:02:42.953Z,99922.81
2019-03-31T15:05:12.324Z,99918.16
2019-03-31T15:07:41.563Z,99919.56
2019-03-31T15:10:10.852Z,99917.14
2019-03-31T15:12:40.099Z,99915.20
2019-03-31T15:15:09.292Z,99920.28
2019-03-31T15:17:38.523Z,99921.48
2019-03-31T15:20:07.847Z,99913.86
2019-03-31T15:22:37.135Z,99914.03
2019-03-31T15:25:07.345Z,99908.31
2019-03-31T15:27:36.583Z,99910.31
2019-03-31T15:30:07.111Z,99912.31
2019-03-31T15:32:36.317Z,99910.37
2019-03-31T15:35:06.796Z,99905.73
2019-03-31T15:37:35.987Z,99903.53
2019-03-31T15:40:06.703Z,99900.75
2019-03-31T15:42:35.963Z,99904.39
2019-03-31T15:45:06.323Z,99899.04
2019-03-31T15:47:35.601Z,99903.63
2019-03-31T15:50:06.348Z,99901.33
2019-03-31T15:52:35.584Z,99907.25
2019-03-31T15:55:06.762Z,99905.27
2019-03-31T15:57:35.995Z,99905.14
2019-03-31T16:00:07.465Z,99900.39
2019-03-31T16:02:36.615Z,99908.39
2019-03-31T16:05:08.545Z,99902.00
2019-03-31T16:07:37.741Z,99900.69
2019-03-31T16:10:07.538Z,99901.39
2019-03-31T16:12:37.760Z,99900.42
2019-03-31T16:15:07.621Z,99901.12
2019-03-31T16:17:36.762Z,99895.84
2019-03-31T16:20:06.985Z,99897.49
2019-03-31T16:22:36.246Z,99892.58
2019-03-31T16:25:25.017Z,99897.83
2019-03-31T16:27:54.344Z,99895.28
2019-03-31T16:30:23.800Z,99898.49
2019-03-31T16:32:53.034Z,99902.60
2019-03-31T16:35:22.255Z,99898.53
2019-03-31T16:37:51.503Z,99900.03
2019-03-31T16:40:20.658Z,99896.95
2019-03-31T16:42:49.929Z,99896.28
2019-03-31T16:45:19.133Z,99897.39
2019-03-31T16:47:48.330Z,99900.55
2019-03-31T16:50:17.966Z,99898.56
2019-03-31T16:52:47.183Z,99909.11
2019-03-31T16:55:16.563Z,99903.56
2019-03-31T16:57:45.685Z,99904.41
2019-03-31T17:00:15.488Z,99903.75
2019-03-31T17:02:44.738Z,99902.84
2019-03-31T17:05:21.614Z,99905.79
2019-03-31T17:07:47.864Z,99907.55
2019-03-31T17:10:17.132Z,99910.41
2019-03-31T17:12:46.317Z,99913.69
2019-03-31T17:15:15.806Z,99914.52
2019-03-31T17:17:45.166Z,99915.16
2019-03-31T17:20:14.864Z,99913.80
2019-03-31T17:22:44.089Z,99918.48
2019-03-31T17:25:13.326Z,99920.76
2019-03-31T17:27:42.534Z,99922.66
2019-03-31T17:30:12.945Z,99922.44
2019-03-31T17:32:42.190Z,99924.20
2019-03-31T17:35:11.495Z,99924.09
2019-03-31T17:37:40.684Z,99936.46
2019-03-31T17:40:09.940Z,99928.34
2019-03-31T17:42:39.146Z,99926.95
2019-03-31T17:45:08.645Z,99935.43
2019-03-31T17:47:37.898Z,99934.33
2019-03-31T17:50:07.328Z,99934.92
2019-03-31T17:52:36.535Z,99939.41
2019-03-31T17:55:06.590Z,99939.66
2019-03-31T17:57:35.732Z,99946.36
2019-03-31T18:00:08.053Z,99948.06
2019-03-31T18:02:37.346Z,99951.54
2019-03-31T18:05:08.192Z,99943.56
2019-03-31T18:07:37.474Z,99949.08
2019-03-31T18:10:20.213Z,99945.52
2019-03-31T18:12:38.421Z,99953.16
2019-03-31T18:15:07.682Z,99955.80
2019-03-31T18:17:36.863Z,99956.20
2019-03-31T18:20:08.141Z,99958.41
2019-03-31T18:22:37.437Z,99963.34
2019-03-31T18:25:07.860Z,99961.29
2019-03-31T18:27:37.077Z,99961.22
2019-03-31T18:30:07.455Z,99966.89
2019-03-31T18:32:36.691Z,99970.61
2019-03-31T18:35:07.243Z,99975.95
2019-03-31T18:37:36.617Z,99973.62
2019-03-31T18:40:07.589Z,99972.73
2019-03-31T18:42:36.890Z,99978.58
2019-03-31T18:45:07.296Z,99976.56
2019-03-31T18:47:36.645Z,99972.52
2019-03-31T18:50:07.168Z,99979.15
2019-03-31T18:52:36.422Z,99976.06
2019-03-31T18:55:14.343Z,99982.30
2019-03-31T18:57:48.203Z,99979.83
2019-03-31T19:00:19.138Z,99981.81
2019-03-31T19:02:50.066Z,99977.48
2019-03-31T19:05:24.649Z,99975.05
2019-03-31T19:07:58.510Z,99976.98
2019-03-31T19:10:49.801Z,99978.20
2019-03-31T19:13:27.120Z,99980.42
2019-03-31T19:16:01.153Z,99979.03
2019-03-31T19:18:32.283Z,99982.17
2019-03-31T19:21:11.021Z,99983.26
2019-03-31T19:23:40.843Z,99987.16
2019-03-31T19:26:11.803Z,99979.97
2019-03-31T19:28:42.691Z,99981.81
2019-03-31T19:31:19.444Z,99979.85
2019-03-31T19:34:06.432Z,99979.56
2019-03-31T19:36:43.194Z,99978.64
2019-03-31T19:39:19.936Z,99980.24
2019-03-31T19:42:02.809Z,99974.45
2019-03-31T19:44:33.678Z,99980.20
2019-03-31T19:47:16.403Z,99982.09
2019-03-31T19:49:47.271Z,99983.78
2019-03-31T19:52:30.407Z,99981.36
2019-03-31T19:55:17.355Z,99980.95
2019-03-31T19:57:57.368Z,99981.30
2019-03-31T20:00:34.398Z,99976.11
2019-03-31T20:03:11.370Z,99973.06
2019-03-31T20:05:58.908Z,99976.76
2019-03-31T20:08:35.804Z,99975.70
2019-03-31T20:11:22.687Z,99976.69
2019-03-31T20:14:11.579Z,99972.78
2019-03-31T20:17:00.772Z,99970.80
2019-03-31T20:19:37.604Z,99973.66
2019-03-31T20:22:08.509Z,99977.05
2019-03-31T20:24:55.536Z,99969.23
2019-03-31T20:27:32.005Z,99972.45
2019-03-31T20:30:05.686Z,99974.97
2019-03-31T20:32:36.555Z,99980.43
2019-03-31T20:35:08.927Z,99981.48
2019-03-31T20:37:42.703Z,99979.84
2019-03-31T20:40:16.611Z,99980.78
2019-03-31T20:42:50.084Z,99986.72
2019-03-31T20:45:19.512Z,99991.44
2019-03-31T20:47:48.669Z,99986.22
2019-03-31T20:50:18.212Z,99995.22
2019-03-31T20:52:47.575Z,99996.74
2019-03-31T20:55:17.112Z,99990.72
2019-03-31T20:57:46.478Z,99991.19
2019-03-31T21:00:15.879Z,99996.28
2019-03-31T21:02:45.112Z,99997.33
2019-03-31T21:05:14.537Z,99999.00
2019-03-31T21:07:43.899Z,100004.31
2019-03-31T21:10:13.227Z,100000.88
2019-03-31T21:12:42.411Z,100007.28
2019-03-31T21:15:11.727Z,100001.00
2019-03-31T21:17:41.004Z,100006.07
2019-03-31T21:20:10.282Z,100002.88
2019-03-31T21:22:39.554Z,100004.64
2019-03-31T21:25:08.821Z,100005.69
2019-03-31T21:27:38.185Z,100002.50
2019-03-31T21:30:08.202Z,99999.63
2019-03-31T21:32:37.517Z,100007.55
2019-03-31T21:35:07.961Z,100012.44
2019-03-31T21:37:37.392Z,100007.09
2019-03-31T21:40:09.835Z,100007.53
2019-03-31T21:42:39.253Z,100003.27
2019-03-31T21:45:08.760Z,100000.52
2019-03-31T21:47:37.952Z,100004.27
2019-03-31T21:50:08.022Z,100003.37
2019-03-31T21:52:37.234Z,100006.56
2019-03-31T21:55:08.372Z,100008.05
2019-03-31T21:57:37.634Z,100004.47
2019-03-31T22:00:11.043Z,100007.81
2019-03-31T22:02:40.238Z,100002.25
2019-03-31T22:05:10.493Z,99995.38
2019-03-31T22:07:39.784Z,100005.66
2019-03-31T22:10:09.093Z,100003.50
2019-03-31T22:12:38.374Z,100006.10
2019-03-31T22:15:07.718Z,100003.72
2019-03-31T22:17:36.937Z,100005.50
2019-03-31T22:20:07.885Z,100004.79
2019-03-31T22:22:37.197Z,99997.66
2019-03-31T22:25:07.210Z,100000.24
2019-03-31T22:27:36.507Z,100006.21
2019-03-31T22:30:08.796Z,99999.27
2019-03-31T22:32:38.039Z,99999.93
2019-03-31T22:35:07.294Z,99997.42
2019-03-31T22:37:36.468Z,99999.44
2019-03-31T22:40:06.781Z,100002.45
2019-03-31T22:42:36.087Z,99998.30
2019-03-31T22:45:06.297Z,100002.73
2019-03-31T22:47:35.525Z,100001.03
2019-03-31T22:50:05.428Z,100005.34
2019-03-31T22:52:34.624Z,100001.66
2019-03-31T22:55:04.787Z,100006.33
2019-03-31T22:57:34.059Z,100000.63
2019-03-31T23:00:03.458Z,100003.12
2019-03-31T23:02:32.611Z,100000.79
2019-03-31T23:05:02.720Z,99999.12
2019-03-31T23:07:31.957Z,100000.89
2019-03-31T23:10:01.171Z,99997.44
2019-03-31T23:12:30.354Z,99997.00
2019-03-31T23:14:59.496Z,99995.05
2019-03-31T23:17:28.716Z,99998.72
2019-03-31T23:19:57.980Z,99997.97
2019-03-31T23:22:27.785Z,100000.45
2019-03-31T23:24:57.302Z,99999.13
2019-03-31T23:27:26.571Z,100002.55
2019-03-31T23:29:55.721Z,100000.16
2019-03-31T23:32:24.963Z,99996.00
2019-03-31T23:34:54.202Z,99995.38
2019-03-31T23:37:23.358Z,99995.59
2019-03-31T23:39:52.499Z,99999.69
2019-03-31T23:42:21.702Z,99998.12
2019-03-31T23:44:50.833Z,99996.20
2019-03-31T23:47:19.970Z,99998.29
2019-03-31T23:49:49.217Z,99998.12
2019-03-31T23:52:18.351Z,99990.91
2019-03-31T23:54:47.519Z,99990.06
2019-03-31T23:57:16.836Z,99988.05
2019-03-31T23:59:45.980Z,99983.30
